sensor_id;sensor_type;location;lat;lon;timestamp;temperature;humidity
20839;DHT22;10580;51.092;6.828;2023-12-20T00:01:41;7.80;53.90
20839;DHT22;10580;51.092;6.828;2023-12-20T00:04:07;7.80;54.20
20839;DHT22;10580;51.092;6.828;2023-12-20T00:06:32;7.80;54.40
20839;DHT22;10580;51.092;6.828;2023-12-20T00:08:58;7.80;54.60
20839;DHT22;10580;51.092;6.828;2023-12-20T00:11:24;7.80;54.00
20839;DHT22;10580;51.092;6.828;2023-12-20T00:13:49;7.70;52.00
20839;DHT22;10580;51.092;6.828;2023-12-20T00:16:15;7.60;49.50
20839;DHT22;10580;51.092;6.828;2023-12-20T00:18:41;7.50;46.50
20839;DHT22;10580;51.092;6.828;2023-12-20T00:21:06;7.50;44.80
20839;DHT22;10580;51.092;6.828;2023-12-20T00:23:32;7.50;42.90
20839;DHT22;10580;51.092;6.828;2023-12-20T00:25:58;7.50;41.30
20839;DHT22;10580;51.092;6.828;2023-12-20T00:28:23;7.40;39.30
20839;DHT22;10580;51.092;6.828;2023-12-20T00:30:49;7.50;37.70
20839;DHT22;10580;51.092;6.828;2023-12-20T00:33:14;7.40;35.80
20839;DHT22;10580;51.092;6.828;2023-12-20T00:35:40;7.40;33.70
20839;DHT22;10580;51.092;6.828;2023-12-20T00:38:05;7.40;31.40
20839;DHT22;10580;51.092;6.828;2023-12-20T00:40:32;7.30;29.10
20839;DHT22;10580;51.092;6.828;2023-12-20T00:42:58;7.30;27.40
20839;DHT22;10580;51.092;6.828;2023-12-20T00:45:24;7.30;26.10
20839;DHT22;10580;51.092;6.828;2023-12-20T00:47:49;7.30;24.70
20839;DHT22;10580;51.092;6.828;2023-12-20T00:50:15;7.30;23.30
20839;DHT22;10580;51.092;6.828;2023-12-20T00:52:41;7.30;22.40
20839;DHT22;10580;51.092;6.828;2023-12-20T00:55:07;7.30;21.70
20839;DHT22;10580;51.092;6.828;2023-12-20T00:57:33;7.30;20.80
20839;DHT22;10580;51.092;6.828;2023-12-20T00:59:58;7.20;19.40
20839;DHT22;10580;51.092;6.828;2023-12-20T01:02:24;7.10;18.10
20839;DHT22;10580;51.092;6.828;2023-12-20T01:04:49;7.10;17.40
20839;DHT22;10580;51.092;6.828;2023-12-20T01:07:15;7.10;16.80
20839;DHT22;10580;51.092;6.828;2023-12-20T01:09:40;7.10;16.80
20839;DHT22;10580;51.092;6.828;2023-12-20T01:12:06;7.10;17.00
20839;DHT22;10580;51.092;6.828;2023-12-20T01:14:32;7.10;17.10
20839;DHT22;10580;51.092;6.828;2023-12-20T01:16:57;7.10;17.20
20839;DHT22;10580;51.092;6.828;2023-12-20T01:19:24;7.10;17.10
20839;DHT22;10580;51.092;6.828;2023-12-20T01:21:50;7.10;17.00
20839;DHT22;10580;51.092;6.828;2023-12-20T01:24:15;7.10;16.50
20839;DHT22;10580;51.092;6.828;2023-12-20T01:26:41;7.00;15.30
20839;DHT22;10580;51.092;6.828;2023-12-20T01:29:06;7.00;13.80
20839;DHT22;10580;51.092;6.828;2023-12-20T01:31:32;6.90;11.70
20839;DHT22;10580;51.092;6.828;2023-12-20T01:33:57;6.90;10.20
20839;DHT22;10580;51.092;6.828;2023-12-20T01:36:23;6.80;9.00
20839;DHT22;10580;51.092;6.828;2023-12-20T01:38:48;6.80;8.20
20839;DHT22;10580;51.092;6.828;2023-12-20T01:41:15;6.80;7.70
20839;DHT22;10580;51.092;6.828;2023-12-20T01:43:40;6.80;7.10
20839;DHT22;10580;51.092;6.828;2023-12-20T01:46:06;6.80;4.00
20839;DHT22;10580;51.092;6.828;2023-12-20T01:48:32;6.70;1.00
20839;DHT22;10580;51.092;6.828;2023-12-20T01:50:59;6.70;1.00
20839;DHT22;10580;51.092;6.828;2023-12-20T01:53:25;6.70;1.00
20839;DHT22;10580;51.092;6.828;2023-12-20T01:55:54;6.70;1.00
20839;DHT22;10580;51.092;6.828;2023-12-20T01:58:21;6.70;1.00
20839;DHT22;10580;51.092;6.828;2023-12-20T02:00:48;6.60;1.00
20839;DHT22;10580;51.092;6.828;2023-12-20T02:03:14;6.60;1.00
20839;DHT22;10580;51.092;6.828;2023-12-20T02:05:39;6.50;1.00
20839;DHT22;10580;51.092;6.828;2023-12-20T02:08:06;6.50;1.00
20839;DHT22;10580;51.092;6.828;2023-12-20T02:10:32;6.40;1.00
20839;DHT22;10580;51.092;6.828;2023-12-20T02:12:58;6.40;1.00
20839;DHT22;10580;51.092;6.828;2023-12-20T02:15:24;6.30;1.00
20839;DHT22;10580;51.092;6.828;2023-12-20T02:17:50;6.20;1.00
20839;DHT22;10580;51.092;6.828;2023-12-20T02:20:15;6.20;1.00
20839;DHT22;10580;51.092;6.828;2023-12-20T02:22:41;6.10;1.00
20839;DHT22;10580;51.092;6.828;2023-12-20T02:25:07;6.10;1.00
20839;DHT22;10580;51.092;6.828;2023-12-20T02:27:33;6.00;1.00
20839;DHT22;10580;51.092;6.828;2023-12-20T02:29:59;6.00;1.00
20839;DHT22;10580;51.092;6.828;2023-12-20T02:32:25;6.00;1.00
20839;DHT22;10580;51.092;6.828;2023-12-20T02:34:55;5.90;1.00
20839;DHT22;10580;51.092;6.828;2023-12-20T02:37:21;5.90;1.00
20839;DHT22;10580;51.092;6.828;2023-12-20T02:39:46;5.90;1.00
20839;DHT22;10580;51.092;6.828;2023-12-20T02:42:12;5.90;1.00
20839;DHT22;10580;51.092;6.828;2023-12-20T02:44:37;5.90;1.00
20839;DHT22;10580;51.092;6.828;2023-12-20T02:47:03;5.90;1.00
20839;DHT22;10580;51.092;6.828;2023-12-20T02:49:29;6.00;1.00
20839;DHT22;10580;51.092;6.828;2023-12-20T02:51:54;6.00;1.00
20839;DHT22;10580;51.092;6.828;2023-12-20T02:54:20;6.00;1.00
20839;DHT22;10580;51.092;6.828;2023-12-20T02:56:45;6.00;1.00
20839;DHT22;10580;51.092;6.828;2023-12-20T02:59:11;6.00;1.00
20839;DHT22;10580;51.092;6.828;2023-12-20T03:01:44;6.00;1.00
20839;DHT22;10580;51.092;6.828;2023-12-20T03:04:10;6.00;1.00
20839;DHT22;10580;51.092;6.828;2023-12-20T03:06:36;6.00;1.00
20839;DHT22;10580;51.092;6.828;2023-12-20T03:09:02;6.00;1.00
20839;DHT22;10580;51.092;6.828;2023-12-20T03:11:27;6.10;1.00
20839;DHT22;10580;51.092;6.828;2023-12-20T03:13:54;6.10;1.00
20839;DHT22;10580;51.092;6.828;2023-12-20T03:16:19;6.00;1.00
20839;DHT22;10580;51.092;6.828;2023-12-20T03:18:45;6.10;1.00
20839;DHT22;10580;51.092;6.828;2023-12-20T03:21:10;6.00;1.00
20839;DHT22;10580;51.092;6.828;2023-12-20T03:23:36;6.00;1.00
20839;DHT22;10580;51.092;6.828;2023-12-20T03:26:02;6.00;1.00
20839;DHT22;10580;51.092;6.828;2023-12-20T03:28:27;6.00;1.00
20839;DHT22;10580;51.092;6.828;2023-12-20T03:30:53;6.00;1.00
20839;DHT22;10580;51.092;6.828;2023-12-20T03:33:19;6.00;1.00
20839;DHT22;10580;51.092;6.828;2023-12-20T03:35:44;5.90;1.00
20839;DHT22;10580;51.092;6.828;2023-12-20T03:38:10;5.90;1.00
20839;DHT22;10580;51.092;6.828;2023-12-20T03:40:35;5.90;1.00
20839;DHT22;10580;51.092;6.828;2023-12-20T03:43:01;5.90;1.00
20839;DHT22;10580;51.092;6.828;2023-12-20T03:45:26;5.90;1.00
20839;DHT22;10580;51.092;6.828;2023-12-20T03:47:52;5.90;1.00
20839;DHT22;10580;51.092;6.828;2023-12-20T03:50:25;5.90;1.00
20839;DHT22;10580;51.092;6.828;2023-12-20T03:52:51;5.80;1.00
20839;DHT22;10580;51.092;6.828;2023-12-20T03:55:16;5.80;1.00
20839;DHT22;10580;51.092;6.828;2023-12-20T03:57:42;5.80;1.00
20839;DHT22;10580;51.092;6.828;2023-12-20T04:00:08;5.70;1.00
20839;DHT22;10580;51.092;6.828;2023-12-20T04:02:41;5.70;1.00
20839;DHT22;10580;51.092;6.828;2023-12-20T04:05:07;5.70;1.00
20839;DHT22;10580;51.092;6.828;2023-12-20T04:07:35;5.80;1.00
20839;DHT22;10580;51.092;6.828;2023-12-20T04:10:01;5.80;1.00
20839;DHT22;10580;51.092;6.828;2023-12-20T04:12:28;5.80;1.00
20839;DHT22;10580;51.092;6.828;2023-12-20T04:14:53;5.80;1.00
20839;DHT22;10580;51.092;6.828;2023-12-20T04:17:20;5.90;1.00
20839;DHT22;10580;51.092;6.828;2023-12-20T04:19:45;5.90;1.00
20839;DHT22;10580;51.092;6.828;2023-12-20T04:22:11;5.90;1.00
20839;DHT22;10580;51.092;6.828;2023-12-20T04:24:36;5.90;1.00
20839;DHT22;10580;51.092;6.828;2023-12-20T04:27:02;5.90;1.00
20839;DHT22;10580;51.092;6.828;2023-12-20T04:29:28;5.90;1.00
20839;DHT22;10580;51.092;6.828;2023-12-20T04:31:53;5.90;1.00
20839;DHT22;10580;51.092;6.828;2023-12-20T04:34:19;5.90;1.00
20839;DHT22;10580;51.092;6.828;2023-12-20T04:36:45;5.90;1.00
20839;DHT22;10580;51.092;6.828;2023-12-20T04:39:14;5.90;1.00
20839;DHT22;10580;51.092;6.828;2023-12-20T04:41:40;5.90;1.00
20839;DHT22;10580;51.092;6.828;2023-12-20T04:44:06;5.90;1.00
20839;DHT22;10580;51.092;6.828;2023-12-20T04:46:32;5.90;1.00
20839;DHT22;10580;51.092;6.828;2023-12-20T04:48:57;5.90;1.00
20839;DHT22;10580;51.092;6.828;2023-12-20T04:51:23;5.90;1.00
20839;DHT22;10580;51.092;6.828;2023-12-20T04:53:48;5.80;1.00
20839;DHT22;10580;51.092;6.828;2023-12-20T04:56:14;5.80;1.00
20839;DHT22;10580;51.092;6.828;2023-12-20T04:58:40;5.90;1.00
20839;DHT22;10580;51.092;6.828;2023-12-20T05:01:06;5.90;1.00
20839;DHT22;10580;51.092;6.828;2023-12-20T05:03:32;5.80;1.00
20839;DHT22;10580;51.092;6.828;2023-12-20T05:05:58;5.80;1.00
20839;DHT22;10580;51.092;6.828;2023-12-20T05:08:23;5.80;1.00
20839;DHT22;10580;51.092;6.828;2023-12-20T05:10:50;5.70;1.00
20839;DHT22;10580;51.092;6.828;2023-12-20T05:13:16;5.70;1.00
20839;DHT22;10580;51.092;6.828;2023-12-20T05:15:42;5.70;1.00
20839;DHT22;10580;51.092;6.828;2023-12-20T05:18:07;5.70;1.00
20839;DHT22;10580;51.092;6.828;2023-12-20T05:20:33;5.70;1.00
20839;DHT22;10580;51.092;6.828;2023-12-20T05:22:58;5.70;1.00
20839;DHT22;10580;51.092;6.828;2023-12-20T05:25:24;5.70;1.00
20839;DHT22;10580;51.092;6.828;2023-12-20T05:27:50;5.70;1.00
20839;DHT22;10580;51.092;6.828;2023-12-20T05:30:16;5.70;1.00
20839;DHT22;10580;51.092;6.828;2023-12-20T05:32:41;5.70;1.00
20839;DHT22;10580;51.092;6.828;2023-12-20T05:35:07;5.60;1.00
20839;DHT22;10580;51.092;6.828;2023-12-20T05:37:32;5.60;1.00
20839;DHT22;10580;51.092;6.828;2023-12-20T05:39:58;5.70;1.00
20839;DHT22;10580;51.092;6.828;2023-12-20T05:42:24;5.70;1.00
20839;DHT22;10580;51.092;6.828;2023-12-20T05:44:49;5.70;1.00
20839;DHT22;10580;51.092;6.828;2023-12-20T05:47:15;5.80;1.00
20839;DHT22;10580;51.092;6.828;2023-12-20T05:49:40;5.80;1.00
20839;DHT22;10580;51.092;6.828;2023-12-20T05:52:06;5.80;1.00
20839;DHT22;10580;51.092;6.828;2023-12-20T05:54:32;5.80;1.00
20839;DHT22;10580;51.092;6.828;2023-12-20T05:56:57;5.90;1.00
20839;DHT22;10580;51.092;6.828;2023-12-20T05:59:23;5.90;1.00
20839;DHT22;10580;51.092;6.828;2023-12-20T06:01:49;5.90;1.00
20839;DHT22;10580;51.092;6.828;2023-12-20T06:04:14;6.00;1.00
20839;DHT22;10580;51.092;6.828;2023-12-20T06:06:41;6.00;1.00
20839;DHT22;10580;51.092;6.828;2023-12-20T06:09:07;6.00;1.00
20839;DHT22;10580;51.092;6.828;2023-12-20T06:11:33;6.00;1.00
20839;DHT22;10580;51.092;6.828;2023-12-20T06:13:59;6.00;1.00
20839;DHT22;10580;51.092;6.828;2023-12-20T06:16:24;6.10;1.00
20839;DHT22;10580;51.092;6.828;2023-12-20T06:19:35;6.10;1.00
20839;DHT22;10580;51.092;6.828;2023-12-20T06:22:54;6.10;1.00
20839;DHT22;10580;51.092;6.828;2023-12-20T06:29:32;6.10;1.00
20839;DHT22;10580;51.092;6.828;2023-12-20T06:32:34;6.10;1.00
20839;DHT22;10580;51.092;6.828;2023-12-20T07:07:14;6.40;1.00
20839;DHT22;10580;51.092;6.828;2023-12-20T07:13:11;6.40;1.00
20839;DHT22;10580;51.092;6.828;2023-12-20T08:07:07;6.40;1.00
20839;DHT22;10580;51.092;6.828;2023-12-20T08:12:47;6.50;1.00
20839;DHT22;10580;51.092;6.828;2023-12-20T08:19:12;6.40;1.00
20839;DHT22;10580;51.092;6.828;2023-12-20T08:25:10;6.40;1.00
20839;DHT22;10580;51.092;6.828;2023-12-20T08:53:52;6.40;1.00
20839;DHT22;10580;51.092;6.828;2023-12-20T09:00:26;6.40;1.00
20839;DHT22;10580;51.092;6.828;2023-12-20T09:10:23;6.50;1.00
20839;DHT22;10580;51.092;6.828;2023-12-20T09:20:11;6.60;1.00
20839;DHT22;10580;51.092;6.828;2023-12-20T09:22:38;6.60;1.00
20839;DHT22;10580;51.092;6.828;2023-12-20T09:25:05;6.60;1.00
20839;DHT22;10580;51.092;6.828;2023-12-20T09:27:31;6.60;1.00
20839;DHT22;10580;51.092;6.828;2023-12-20T09:29:56;6.60;1.00
20839;DHT22;10580;51.092;6.828;2023-12-20T09:32:22;6.60;1.00
20839;DHT22;10580;51.092;6.828;2023-12-20T09:34:47;6.60;1.00
20839;DHT22;10580;51.092;6.828;2023-12-20T09:37:13;6.70;1.00
20839;DHT22;10580;51.092;6.828;2023-12-20T09:39:39;6.60;1.00
20839;DHT22;10580;51.092;6.828;2023-12-20T09:42:06;6.70;1.00
20839;DHT22;10580;51.092;6.828;2023-12-20T09:44:32;6.70;1.00
20839;DHT22;10580;51.092;6.828;2023-12-20T09:47:05;6.60;1.00
20839;DHT22;10580;51.092;6.828;2023-12-20T09:49:30;6.70;1.00
20839;DHT22;10580;51.092;6.828;2023-12-20T09:51:57;6.60;1.00
20839;DHT22;10580;51.092;6.828;2023-12-20T09:54:25;6.70;1.00
20839;DHT22;10580;51.092;6.828;2023-12-20T09:56:52;6.60;1.00
20839;DHT22;10580;51.092;6.828;2023-12-20T09:59:18;6.70;1.00
20839;DHT22;10580;51.092;6.828;2023-12-20T10:01:43;6.70;1.00
20839;DHT22;10580;51.092;6.828;2023-12-20T10:04:10;6.70;1.00
20839;DHT22;10580;51.092;6.828;2023-12-20T10:06:46;6.70;1.00
20839;DHT22;10580;51.092;6.828;2023-12-20T10:09:13;6.70;1.00
20839;DHT22;10580;51.092;6.828;2023-12-20T10:11:39;6.70;1.00
20839;DHT22;10580;51.092;6.828;2023-12-20T10:14:06;6.80;1.00
20839;DHT22;10580;51.092;6.828;2023-12-20T10:16:32;6.80;1.00
20839;DHT22;10580;51.092;6.828;2023-12-20T10:18:59;6.80;1.00
20839;DHT22;10580;51.092;6.828;2023-12-20T10:21:25;6.80;1.00
20839;DHT22;10580;51.092;6.828;2023-12-20T10:23:53;6.80;1.00
20839;DHT22;10580;51.092;6.828;2023-12-20T10:26:23;6.80;1.00
20839;DHT22;10580;51.092;6.828;2023-12-20T10:29:00;6.80;1.00
20839;DHT22;10580;51.092;6.828;2023-12-20T10:31:33;6.80;1.00
20839;DHT22;10580;51.092;6.828;2023-12-20T10:34:02;6.80;1.00
20839;DHT22;10580;51.092;6.828;2023-12-20T10:36:30;6.80;1.00
20839;DHT22;10580;51.092;6.828;2023-12-20T10:38:56;6.80;1.00
20839;DHT22;10580;51.092;6.828;2023-12-20T10:41:27;6.80;1.00
20839;DHT22;10580;51.092;6.828;2023-12-20T10:43:59;6.90;1.00
20839;DHT22;10580;51.092;6.828;2023-12-20T10:46:27;6.90;1.00
20839;DHT22;10580;51.092;6.828;2023-12-20T10:48:54;6.90;1.00
20839;DHT22;10580;51.092;6.828;2023-12-20T10:51:21;6.90;1.00
20839;DHT22;10580;51.092;6.828;2023-12-20T10:53:48;6.90;1.00
20839;DHT22;10580;51.092;6.828;2023-12-20T10:56:18;6.90;1.00
20839;DHT22;10580;51.092;6.828;2023-12-20T10:58:45;6.90;1.00
20839;DHT22;10580;51.092;6.828;2023-12-20T11:01:17;6.90;1.00
20839;DHT22;10580;51.092;6.828;2023-12-20T11:03:51;6.90;1.00
20839;DHT22;10580;51.092;6.828;2023-12-20T11:06:33;6.90;1.00
20839;DHT22;10580;51.092;6.828;2023-12-20T11:09:03;6.90;1.00
20839;DHT22;10580;51.092;6.828;2023-12-20T11:14:18;7.00;1.00
20839;DHT22;10580;51.092;6.828;2023-12-20T11:16:45;7.10;1.00
20839;DHT22;10580;51.092;6.828;2023-12-20T11:19:11;7.10;1.00
20839;DHT22;10580;51.092;6.828;2023-12-20T11:21:40;7.10;1.00
20839;DHT22;10580;51.092;6.828;2023-12-20T11:24:05;7.10;1.00
20839;DHT22;10580;51.092;6.828;2023-12-20T11:26:31;7.10;1.00
20839;DHT22;10580;51.092;6.828;2023-12-20T11:29:32;7.10;1.00
20839;DHT22;10580;51.092;6.828;2023-12-20T11:32:00;7.10;1.00
20839;DHT22;10580;51.092;6.828;2023-12-20T11:34:32;7.10;1.00
20839;DHT22;10580;51.092;6.828;2023-12-20T11:36:59;7.00;1.00
20839;DHT22;10580;51.092;6.828;2023-12-20T11:39:26;7.00;1.00
20839;DHT22;10580;51.092;6.828;2023-12-20T11:41:57;7.00;1.00
20839;DHT22;10580;51.092;6.828;2023-12-20T11:44:24;7.00;1.00
20839;DHT22;10580;51.092;6.828;2023-12-20T11:46:50;7.00;1.00
20839;DHT22;10580;51.092;6.828;2023-12-20T11:49:16;7.00;1.00
20839;DHT22;10580;51.092;6.828;2023-12-20T11:51:41;7.00;1.00
20839;DHT22;10580;51.092;6.828;2023-12-20T11:54:10;7.00;1.00
20839;DHT22;10580;51.092;6.828;2023-12-20T11:56:36;6.90;1.00
20839;DHT22;10580;51.092;6.828;2023-12-20T11:59:03;6.90;1.00
20839;DHT22;10580;51.092;6.828;2023-12-20T12:01:28;6.90;1.00
20839;DHT22;10580;51.092;6.828;2023-12-20T12:04:06;6.90;1.00
20839;DHT22;10580;51.092;6.828;2023-12-20T12:06:33;6.90;1.00
20839;DHT22;10580;51.092;6.828;2023-12-20T12:08:59;6.90;1.00
20839;DHT22;10580;51.092;6.828;2023-12-20T12:11:24;6.90;1.00
20839;DHT22;10580;51.092;6.828;2023-12-20T12:13:50;7.00;1.00
20839;DHT22;10580;51.092;6.828;2023-12-20T12:16:22;6.90;1.00
20839;DHT22;10580;51.092;6.828;2023-12-20T12:18:58;6.90;1.00
20839;DHT22;10580;51.092;6.828;2023-12-20T12:21:24;6.90;1.00
20839;DHT22;10580;51.092;6.828;2023-12-20T12:23:50;6.90;1.00
20839;DHT22;10580;51.092;6.828;2023-12-20T12:26:16;7.00;1.00
20839;DHT22;10580;51.092;6.828;2023-12-20T12:28:42;7.00;1.00
20839;DHT22;10580;51.092;6.828;2023-12-20T12:31:09;7.00;1.00
20839;DHT22;10580;51.092;6.828;2023-12-20T12:33:38;7.00;1.00
20839;DHT22;10580;51.092;6.828;2023-12-20T12:36:04;7.00;1.00
20839;DHT22;10580;51.092;6.828;2023-12-20T12:38:32;7.00;1.00
20839;DHT22;10580;51.092;6.828;2023-12-20T12:40:58;6.90;1.00
20839;DHT22;10580;51.092;6.828;2023-12-20T12:43:24;6.90;1.00
20839;DHT22;10580;51.092;6.828;2023-12-20T12:45:49;6.90;1.00
20839;DHT22;10580;51.092;6.828;2023-12-20T12:48:15;6.90;1.00
20839;DHT22;10580;51.092;6.828;2023-12-20T12:50:40;7.00;1.00
20839;DHT22;10580;51.092;6.828;2023-12-20T12:53:06;7.00;1.00
20839;DHT22;10580;51.092;6.828;2023-12-20T12:55:32;6.90;1.00
20839;DHT22;10580;51.092;6.828;2023-12-20T12:57:58;6.90;1.00
20839;DHT22;10580;51.092;6.828;2023-12-20T13:00:23;7.00;1.00
20839;DHT22;10580;51.092;6.828;2023-12-20T13:02:50;7.00;1.00
20839;DHT22;10580;51.092;6.828;2023-12-20T13:05:15;7.10;1.00
20839;DHT22;10580;51.092;6.828;2023-12-20T13:07:41;7.20;1.00
20839;DHT22;10580;51.092;6.828;2023-12-20T13:10:10;7.20;1.00
20839;DHT22;10580;51.092;6.828;2023-12-20T13:12:36;7.30;1.00
20839;DHT22;10580;51.092;6.828;2023-12-20T13:15:02;7.30;1.00
20839;DHT22;10580;51.092;6.828;2023-12-20T13:17:29;7.40;1.00
20839;DHT22;10580;51.092;6.828;2023-12-20T13:19:55;7.40;1.00
20839;DHT22;10580;51.092;6.828;2023-12-20T13:22:20;7.40;1.00
20839;DHT22;10580;51.092;6.828;2023-12-20T13:24:46;7.40;1.00
20839;DHT22;10580;51.092;6.828;2023-12-20T13:27:11;7.40;1.00
20839;DHT22;10580;51.092;6.828;2023-12-20T13:29:37;7.30;1.00
20839;DHT22;10580;51.092;6.828;2023-12-20T13:32:03;7.30;1.00
20839;DHT22;10580;51.092;6.828;2023-12-20T13:34:29;7.30;1.00
20839;DHT22;10580;51.092;6.828;2023-12-20T13:36:55;7.30;1.00
20839;DHT22;10580;51.092;6.828;2023-12-20T13:39:22;7.30;1.00
20839;DHT22;10580;51.092;6.828;2023-12-20T13:41:47;7.20;1.00
20839;DHT22;10580;51.092;6.828;2023-12-20T13:44:13;7.20;1.00
20839;DHT22;10580;51.092;6.828;2023-12-20T13:46:41;7.30;1.00
20839;DHT22;10580;51.092;6.828;2023-12-20T13:49:06;7.30;1.00
20839;DHT22;10580;51.092;6.828;2023-12-20T13:51:32;7.30;1.00
20839;DHT22;10580;51.092;6.828;2023-12-20T13:53:57;7.30;1.00
20839;DHT22;10580;51.092;6.828;2023-12-20T13:56:23;7.30;1.00
20839;DHT22;10580;51.092;6.828;2023-12-20T13:58:49;7.30;1.00
20839;DHT22;10580;51.092;6.828;2023-12-20T14:01:16;7.20;1.00
20839;DHT22;10580;51.092;6.828;2023-12-20T14:03:41;7.20;1.00
20839;DHT22;10580;51.092;6.828;2023-12-20T14:06:07;7.30;1.00
20839;DHT22;10580;51.092;6.828;2023-12-20T14:08:32;7.30;1.00
20839;DHT22;10580;51.092;6.828;2023-12-20T14:11:01;7.30;1.00
20839;DHT22;10580;51.092;6.828;2023-12-20T14:13:27;7.30;1.00
20839;DHT22;10580;51.092;6.828;2023-12-20T14:15:52;7.30;1.00
20839;DHT22;10580;51.092;6.828;2023-12-20T14:18:20;7.30;1.00
20839;DHT22;10580;51.092;6.828;2023-12-20T14:20:47;7.30;1.00
20839;DHT22;10580;51.092;6.828;2023-12-20T14:23:13;7.30;1.00
20839;DHT22;10580;51.092;6.828;2023-12-20T14:25:42;7.30;1.00
20839;DHT22;10580;51.092;6.828;2023-12-20T14:28:07;7.30;1.00
20839;DHT22;10580;51.092;6.828;2023-12-20T14:30:33;7.40;1.00
20839;DHT22;10580;51.092;6.828;2023-12-20T14:33:00;7.40;1.00
20839;DHT22;10580;51.092;6.828;2023-12-20T14:35:25;7.40;1.00
20839;DHT22;10580;51.092;6.828;2023-12-20T14:37:51;7.40;1.00
20839;DHT22;10580;51.092;6.828;2023-12-20T14:40:17;7.40;1.00
20839;DHT22;10580;51.092;6.828;2023-12-20T14:42:45;7.40;1.00
20839;DHT22;10580;51.092;6.828;2023-12-20T14:45:11;7.40;1.00
20839;DHT22;10580;51.092;6.828;2023-12-20T14:47:38;7.50;1.00
20839;DHT22;10580;51.092;6.828;2023-12-20T14:50:05;7.50;1.00
20839;DHT22;10580;51.092;6.828;2023-12-20T14:52:34;7.50;1.00
20839;DHT22;10580;51.092;6.828;2023-12-20T14:55:01;7.50;1.00
20839;DHT22;10580;51.092;6.828;2023-12-20T14:57:28;7.50;1.00
20839;DHT22;10580;51.092;6.828;2023-12-20T14:59:55;7.50;1.00
20839;DHT22;10580;51.092;6.828;2023-12-20T15:02:20;7.60;1.00
20839;DHT22;10580;51.092;6.828;2023-12-20T15:04:46;7.60;1.00
20839;DHT22;10580;51.092;6.828;2023-12-20T15:07:11;7.60;1.00
20839;DHT22;10580;51.092;6.828;2023-12-20T15:09:37;7.60;1.00
20839;DHT22;10580;51.092;6.828;2023-12-20T15:12:03;7.60;1.00
20839;DHT22;10580;51.092;6.828;2023-12-20T15:14:29;7.60;1.00
20839;DHT22;10580;51.092;6.828;2023-12-20T15:16:55;7.60;1.00
20839;DHT22;10580;51.092;6.828;2023-12-20T15:19:21;7.60;1.00
20839;DHT22;10580;51.092;6.828;2023-12-20T15:21:47;7.60;1.00
20839;DHT22;10580;51.092;6.828;2023-12-20T15:24:12;7.60;1.00
20839;DHT22;10580;51.092;6.828;2023-12-20T15:26:43;7.60;1.00
20839;DHT22;10580;51.092;6.828;2023-12-20T15:29:09;7.60;1.00
20839;DHT22;10580;51.092;6.828;2023-12-20T15:31:37;7.60;1.00
20839;DHT22;10580;51.092;6.828;2023-12-20T15:34:07;7.60;1.00
20839;DHT22;10580;51.092;6.828;2023-12-20T15:36:32;7.60;1.00
20839;DHT22;10580;51.092;6.828;2023-12-20T15:38:58;7.60;1.00
20839;DHT22;10580;51.092;6.828;2023-12-20T15:41:23;7.60;1.00
20839;DHT22;10580;51.092;6.828;2023-12-20T15:43:49;7.60;1.00
20839;DHT22;10580;51.092;6.828;2023-12-20T15:46:15;7.60;1.00
20839;DHT22;10580;51.092;6.828;2023-12-20T15:48:41;7.60;1.00
20839;DHT22;10580;51.092;6.828;2023-12-20T15:51:08;7.60;1.00
20839;DHT22;10580;51.092;6.828;2023-12-20T15:53:34;7.60;1.00
20839;DHT22;10580;51.092;6.828;2023-12-20T15:56:01;7.60;1.00
20839;DHT22;10580;51.092;6.828;2023-12-20T15:58:27;7.60;1.00
20839;DHT22;10580;51.092;6.828;2023-12-20T16:00:54;7.60;1.00
20839;DHT22;10580;51.092;6.828;2023-12-20T16:03:20;7.60;1.00
20839;DHT22;10580;51.092;6.828;2023-12-20T16:05:46;7.60;1.00
20839;DHT22;10580;51.092;6.828;2023-12-20T16:08:11;7.50;1.00
20839;DHT22;10580;51.092;6.828;2023-12-20T16:10:37;7.50;1.00
20839;DHT22;10580;51.092;6.828;2023-12-20T16:13:03;7.50;1.00
20839;DHT22;10580;51.092;6.828;2023-12-20T16:15:29;7.50;1.00
20839;DHT22;10580;51.092;6.828;2023-12-20T16:17:54;7.50;1.00
20839;DHT22;10580;51.092;6.828;2023-12-20T16:20:20;7.40;1.00
20839;DHT22;10580;51.092;6.828;2023-12-20T16:22:45;7.40;1.00
20839;DHT22;10580;51.092;6.828;2023-12-20T16:25:11;7.40;1.00
20839;DHT22;10580;51.092;6.828;2023-12-20T16:27:37;7.40;1.00
20839;DHT22;10580;51.092;6.828;2023-12-20T16:30:06;7.40;1.00
20839;DHT22;10580;51.092;6.828;2023-12-20T16:32:32;7.40;1.00
20839;DHT22;10580;51.092;6.828;2023-12-20T16:34:58;7.40;1.00
20839;DHT22;10580;51.092;6.828;2023-12-20T16:37:25;7.40;1.00
20839;DHT22;10580;51.092;6.828;2023-12-20T16:39:50;7.50;1.00
20839;DHT22;10580;51.092;6.828;2023-12-20T16:42:16;7.50;1.00
20839;DHT22;10580;51.092;6.828;2023-12-20T16:44:42;7.50;1.00
20839;DHT22;10580;51.092;6.828;2023-12-20T16:47:08;7.50;1.00
20839;DHT22;10580;51.092;6.828;2023-12-20T16:49:33;7.60;1.00
20839;DHT22;10580;51.092;6.828;2023-12-20T16:51:59;7.60;1.00
20839;DHT22;10580;51.092;6.828;2023-12-20T16:54:24;7.60;1.00
20839;DHT22;10580;51.092;6.828;2023-12-20T16:56:50;7.60;1.00
20839;DHT22;10580;51.092;6.828;2023-12-20T16:59:15;7.60;1.00
20839;DHT22;10580;51.092;6.828;2023-12-20T17:01:41;7.60;1.00
20839;DHT22;10580;51.092;6.828;2023-12-20T17:04:11;7.60;1.00
20839;DHT22;10580;51.092;6.828;2023-12-20T17:06:37;7.60;1.00
20839;DHT22;10580;51.092;6.828;2023-12-20T17:09:03;7.60;1.00
20839;DHT22;10580;51.092;6.828;2023-12-20T17:11:28;7.60;1.00
20839;DHT22;10580;51.092;6.828;2023-12-20T17:13:54;7.70;1.00
20839;DHT22;10580;51.092;6.828;2023-12-20T17:16:20;7.70;1.00
20839;DHT22;10580;51.092;6.828;2023-12-20T17:18:45;7.70;1.00
20839;DHT22;10580;51.092;6.828;2023-12-20T17:21:15;7.70;1.00
20839;DHT22;10580;51.092;6.828;2023-12-20T17:23:41;7.70;1.00
20839;DHT22;10580;51.092;6.828;2023-12-20T17:26:07;7.70;1.00
20839;DHT22;10580;51.092;6.828;2023-12-20T17:28:32;7.70;1.00
20839;DHT22;10580;51.092;6.828;2023-12-20T17:30:58;7.70;1.00
20839;DHT22;10580;51.092;6.828;2023-12-20T17:33:25;7.80;1.00
20839;DHT22;10580;51.092;6.828;2023-12-20T17:35:51;7.80;1.00
20839;DHT22;10580;51.092;6.828;2023-12-20T17:38:16;7.80;1.00
20839;DHT22;10580;51.092;6.828;2023-12-20T17:40:42;7.80;1.00
20839;DHT22;10580;51.092;6.828;2023-12-20T17:43:07;7.80;1.00
20839;DHT22;10580;51.092;6.828;2023-12-20T17:45:35;7.80;1.00
20839;DHT22;10580;51.092;6.828;2023-12-20T17:48:03;7.80;1.00
20839;DHT22;10580;51.092;6.828;2023-12-20T17:50:28;7.80;1.00
20839;DHT22;10580;51.092;6.828;2023-12-20T17:52:54;7.90;1.00
20839;DHT22;10580;51.092;6.828;2023-12-20T17:55:22;7.90;1.00
20839;DHT22;10580;51.092;6.828;2023-12-20T18:13:00;8.00;1.00
20839;DHT22;10580;51.092;6.828;2023-12-20T21:00:38;8.70;1.00
20839;DHT22;10580;51.092;6.828;2023-12-20T21:03:03;8.70;1.00
20839;DHT22;10580;51.092;6.828;2023-12-20T21:05:29;8.80;1.00
20839;DHT22;10580;51.092;6.828;2023-12-20T21:07:55;8.80;1.00
20839;DHT22;10580;51.092;6.828;2023-12-20T21:10:22;8.80;1.00
20839;DHT22;10580;51.092;6.828;2023-12-20T21:12:48;8.80;1.00
20839;DHT22;10580;51.092;6.828;2023-12-20T21:15:14;8.80;1.00
20839;DHT22;10580;51.092;6.828;2023-12-20T21:17:40;8.80;1.00
20839;DHT22;10580;51.092;6.828;2023-12-20T21:20:11;8.80;1.00
20839;DHT22;10580;51.092;6.828;2023-12-20T21:22:37;8.80;1.00
20839;DHT22;10580;51.092;6.828;2023-12-20T21:25:04;8.70;1.00
20839;DHT22;10580;51.092;6.828;2023-12-20T21:27:30;8.70;1.00